sensor_id;sensor_type;location;lat;lon;timestamp;P1;durP1;ratioP1;P2;durP2;ratioP2
51491;SDS011;37569;50.548;8.778;2023-06-19T00:00:01;11.9;;;10.7;;
51491;SDS011;37569;50.548;8.778;2023-06-19T00:05:03;12.9;;;11.4;;
51491;SDS011;37569;50.548;8.778;2023-06-19T00:10:03;13.3;;;12;;
51491;SDS011;37569;50.548;8.778;2023-06-19T00:15:04;13;;;11.8;;
51491;SDS011;37569;50.548;8.778;2023-06-19T00:20:05;12;;;11;;
51491;SDS011;37569;50.548;8.778;2023-06-19T00:25:06;12.1;;;10.8;;
51491;SDS011;37569;50.548;8.778;2023-06-19T00:30:07;11.9;;;10.8;;
51491;SDS011;37569;50.548;8.778;2023-06-19T00:35:07;11.8;;;10.6;;
51491;SDS011;37569;50.548;8.778;2023-06-19T00:40:08;12.5;;;11.2;;
51491;SDS011;37569;50.548;8.778;2023-06-19T00:50:10;12.7;;;11.5;;
51491;SDS011;37569;50.548;8.778;2023-06-19T00:55:11;12;;;10.8;;
51491;SDS011;37569;50.548;8.778;2023-06-19T01:00:12;11.4;;;10.3;;
51491;SDS011;37569;50.548;8.778;2023-06-19T01:05:13;11.3;;;10.3;;
51491;SDS011;37569;50.548;8.778;2023-06-19T01:10:15;11.2;;;10;;
51491;SDS011;37569;50.548;8.778;2023-06-19T01:15:14;11.5;;;10.3;;
51491;SDS011;37569;50.548;8.778;2023-06-19T01:20:15;11.2;;;10.1;;
51491;SDS011;37569;50.548;8.778;2023-06-19T01:25:16;11.2;;;10.3;;
51491;SDS011;37569;50.548;8.778;2023-06-19T01:30:17;11.5;;;10.5;;
51491;SDS011;37569;50.548;8.778;2023-06-19T01:35:19;11.6;;;10.5;;
51491;SDS011;37569;50.548;8.778;2023-06-19T01:40:19;11.3;;;10.2;;
51491;SDS011;37569;50.548;8.778;2023-06-19T01:45:20;12.3;;;10.9;;
51491;SDS011;37569;50.548;8.778;2023-06-19T01:50:21;11.4;;;10.4;;
51491;SDS011;37569;50.548;8.778;2023-06-19T01:55:21;12;;;10.8;;
51491;SDS011;37569;50.548;8.778;2023-06-19T02:00:22;11.3;;;10.2;;
51491;SDS011;37569;50.548;8.778;2023-06-19T02:05:23;11.7;;;10.6;;
51491;SDS011;37569;50.548;8.778;2023-06-19T02:10:24;11.2;;;10.2;;
51491;SDS011;37569;50.548;8.778;2023-06-19T02:15:25;11.1;;;10;;
51491;SDS011;37569;50.548;8.778;2023-06-19T02:20:26;11.4;;;10.3;;
51491;SDS011;37569;50.548;8.778;2023-06-19T02:25:26;11.6;;;10.5;;
51491;SDS011;37569;50.548;8.778;2023-06-19T02:30:27;11.7;;;10.5;;
51491;SDS011;37569;50.548;8.778;2023-06-19T02:35:28;12.3;;;11.1;;
51491;SDS011;37569;50.548;8.778;2023-06-19T02:40:29;12.2;;;10.9;;
51491;SDS011;37569;50.548;8.778;2023-06-19T02:45:30;11.8;;;10.8;;
51491;SDS011;37569;50.548;8.778;2023-06-19T02:50:30;11.4;;;10.4;;
51491;SDS011;37569;50.548;8.778;2023-06-19T02:55:31;12.5;;;11.4;;
51491;SDS011;37569;50.548;8.778;2023-06-19T03:00:32;12.9;;;11.4;;
51491;SDS011;37569;50.548;8.778;2023-06-19T03:05:33;12.4;;;11.2;;
51491;SDS011;37569;50.548;8.778;2023-06-19T03:10:34;13;;;11.7;;
51491;SDS011;37569;50.548;8.778;2023-06-19T03:15:34;12.7;;;11.4;;
51491;SDS011;37569;50.548;8.778;2023-06-19T03:20:35;12.4;;;11.2;;
51491;SDS011;37569;50.548;8.778;2023-06-19T03:25:36;12;;;10.9;;
51491;SDS011;37569;50.548;8.778;2023-06-19T03:30:37;12.5;;;11.3;;
51491;SDS011;37569;50.548;8.778;2023-06-19T03:35:38;13;;;11.7;;
51491;SDS011;37569;50.548;8.778;2023-06-19T03:40:39;12.8;;;11.6;;
51491;SDS011;37569;50.548;8.778;2023-06-19T03:45:39;13.6;;;12.4;;
51491;SDS011;37569;50.548;8.778;2023-06-19T03:50:40;14.2;;;12.8;;
51491;SDS011;37569;50.548;8.778;2023-06-19T03:55:42;14.7;;;13.4;;
51491;SDS011;37569;50.548;8.778;2023-06-19T04:00:42;14.4;;;12.8;;
51491;SDS011;37569;50.548;8.778;2023-06-19T04:05:43;14.3;;;13;;
51491;SDS011;37569;50.548;8.778;2023-06-19T04:10:44;15.7;;;14.1;;
51491;SDS011;37569;50.548;8.778;2023-06-19T04:15:45;15;;;13.5;;
51491;SDS011;37569;50.548;8.778;2023-06-19T04:20:45;16.9;;;14.4;;
51491;SDS011;37569;50.548;8.778;2023-06-19T04:25:46;15.2;;;13.6;;
51491;SDS011;37569;50.548;8.778;2023-06-19T04:30:47;15.5;;;13.9;;
51491;SDS011;37569;50.548;8.778;2023-06-19T04:35:48;17.4;;;14.3;;
51491;SDS011;37569;50.548;8.778;2023-06-19T04:40:49;15.3;;;13.4;;
51491;SDS011;37569;50.548;8.778;2023-06-19T04:45:50;15.6;;;14;;
51491;SDS011;37569;50.548;8.778;2023-06-19T04:50:51;16.1;;;14.4;;
51491;SDS011;37569;50.548;8.778;2023-06-19T04:55:51;15.2;;;13.7;;
51491;SDS011;37569;50.548;8.778;2023-06-19T05:00:52;14.5;;;13.1;;
51491;SDS011;37569;50.548;8.778;2023-06-19T05:05:53;15.7;;;13.3;;
51491;SDS011;37569;50.548;8.778;2023-06-19T05:10:54;13.7;;;12.3;;
51491;SDS011;37569;50.548;8.778;2023-06-19T05:15:55;11.9;;;10.7;;
51491;SDS011;37569;50.548;8.778;2023-06-19T05:20:56;11.7;;;10.6;;
51491;SDS011;37569;50.548;8.778;2023-06-19T05:25:57;10.7;;;9.6;;
51491;SDS011;37569;50.548;8.778;2023-06-19T05:30:58;10.9;;;9.8;;
51491;SDS011;37569;50.548;8.778;2023-06-19T05:35:59;10;;;9.1;;
51491;SDS011;37569;50.548;8.778;2023-06-19T05:41:01;10;;;8.9;;
51491;SDS011;37569;50.548;8.778;2023-06-19T05:46:01;8.8;;;8;;
51491;SDS011;37569;50.548;8.778;2023-06-19T05:51:02;9.5;;;7.4;;
51491;SDS011;37569;50.548;8.778;2023-06-19T05:56:04;8.8;;;7.5;;
51491;SDS011;37569;50.548;8.778;2023-06-19T06:01:05;8;;;7.3;;
51491;SDS011;37569;50.548;8.778;2023-06-19T06:06:06;10.8;;;9.7;;
51491;SDS011;37569;50.548;8.778;2023-06-19T06:11:07;10.7;;;9.7;;
51491;SDS011;37569;50.548;8.778;2023-06-19T06:16:08;11;;;9.9;;
51491;SDS011;37569;50.548;8.778;2023-06-19T06:21:09;11.6;;;10.4;;
51491;SDS011;37569;50.548;8.778;2023-06-19T06:26:10;12.8;;;10.3;;
51491;SDS011;37569;50.548;8.778;2023-06-19T06:31:11;12.1;;;10.6;;
51491;SDS011;37569;50.548;8.778;2023-06-19T06:36:14;11.6;;;9.9;;
51491;SDS011;37569;50.548;8.778;2023-06-19T06:41:14;9.9;;;8.5;;
51491;SDS011;37569;50.548;8.778;2023-06-19T06:46:15;6.8;;;6.1;;
51491;SDS011;37569;50.548;8.778;2023-06-19T06:51:16;6.1;;;5.5;;
51491;SDS011;37569;50.548;8.778;2023-06-19T06:56:17;5.7;;;5.2;;
51491;SDS011;37569;50.548;8.778;2023-06-19T07:01:18;6;;;5.5;;
51491;SDS011;37569;50.548;8.778;2023-06-19T07:06:20;6.2;;;5.6;;
51491;SDS011;37569;50.548;8.778;2023-06-19T07:11:21;7.5;;;5.7;;
51491;SDS011;37569;50.548;8.778;2023-06-19T07:16:22;5.9;;;5.3;;
51491;SDS011;37569;50.548;8.778;2023-06-19T07:21:23;5.6;;;5;;
51491;SDS011;37569;50.548;8.778;2023-06-19T07:26:25;6.7;;;5.3;;
51491;SDS011;37569;50.548;8.778;2023-06-19T07:31:26;5.6;;;5.1;;
51491;SDS011;37569;50.548;8.778;2023-06-19T07:36:27;5.4;;;4.8;;
51491;SDS011;37569;50.548;8.778;2023-06-19T07:41:29;5.3;;;4.5;;
51491;SDS011;37569;50.548;8.778;2023-06-19T07:46:30;5.5;;;5;;
51491;SDS011;37569;50.548;8.778;2023-06-19T07:51:31;5.6;;;5.1;;
51491;SDS011;37569;50.548;8.778;2023-06-19T07:56:32;5.7;;;5.1;;
51491;SDS011;37569;50.548;8.778;2023-06-19T08:01:34;5.7;;;5.2;;
51491;SDS011;37569;50.548;8.778;2023-06-19T08:06:35;5.9;;;5.4;;
51491;SDS011;37569;50.548;8.778;2023-06-19T08:11:36;5.6;;;5;;
51491;SDS011;37569;50.548;8.778;2023-06-19T08:16:37;5.3;;;4.8;;
51491;SDS011;37569;50.548;8.778;2023-06-19T08:21:38;4.7;;;4.3;;
51491;SDS011;37569;50.548;8.778;2023-06-19T08:26:40;5.8;;;5;;
51491;SDS011;37569;50.548;8.778;2023-06-19T08:31:41;5.3;;;4.8;;
51491;SDS011;37569;50.548;8.778;2023-06-19T08:36:42;6.2;;;4.9;;
51491;SDS011;37569;50.548;8.778;2023-06-19T08:41:43;5.3;;;4.8;;
51491;SDS011;37569;50.548;8.778;2023-06-19T08:46:45;5.5;;;4.9;;
51491;SDS011;37569;50.548;8.778;2023-06-19T08:51:46;5.3;;;4.8;;
51491;SDS011;37569;50.548;8.778;2023-06-19T08:56:47;5.3;;;4.8;;
51491;SDS011;37569;50.548;8.778;2023-06-19T09:01:49;5.4;;;5;;
51491;SDS011;37569;50.548;8.778;2023-06-19T09:06:50;5.3;;;4.8;;
51491;SDS011;37569;50.548;8.778;2023-06-19T09:11:59;5.5;;;4.9;;
51491;SDS011;37569;50.548;8.778;2023-06-19T09:16:52;5.7;;;5.1;;
51491;SDS011;37569;50.548;8.778;2023-06-19T09:21:53;5.3;;;4.8;;
51491;SDS011;37569;50.548;8.778;2023-06-19T09:27:04;5.5;;;5;;
51491;SDS011;37569;50.548;8.778;2023-06-19T09:31:55;4.9;;;4.5;;
51491;SDS011;37569;50.548;8.778;2023-06-19T09:36:56;4.9;;;4.5;;
51491;SDS011;37569;50.548;8.778;2023-06-19T09:41:58;4.8;;;4.4;;
51491;SDS011;37569;50.548;8.778;2023-06-19T09:46:59;5.5;;;4.4;;
51491;SDS011;37569;50.548;8.778;2023-06-19T09:52:00;4.5;;;4.1;;
51491;SDS011;37569;50.548;8.778;2023-06-19T09:57:01;5.2;;;4.6;;
51491;SDS011;37569;50.548;8.778;2023-06-19T10:02:03;4.9;;;4.4;;
51491;SDS011;37569;50.548;8.778;2023-06-19T10:07:14;4.6;;;4.2;;
51491;SDS011;37569;50.548;8.778;2023-06-19T10:12:11;4.5;;;4.1;;
51491;SDS011;37569;50.548;8.778;2023-06-19T10:17:08;5;;;4.4;;
51491;SDS011;37569;50.548;8.778;2023-06-19T10:22:08;4.9;;;4.5;;
51491;SDS011;37569;50.548;8.778;2023-06-19T10:27:09;4.7;;;4.2;;
51491;SDS011;37569;50.548;8.778;2023-06-19T10:32:10;4.4;;;4;;
51491;SDS011;37569;50.548;8.778;2023-06-19T10:37:12;6.5;;;5.9;;
51491;SDS011;37569;50.548;8.778;2023-06-19T10:42:13;4.4;;;4;;
51491;SDS011;37569;50.548;8.778;2023-06-19T10:47:14;4.6;;;4.2;;
51491;SDS011;37569;50.548;8.778;2023-06-19T10:52:16;4.8;;;4.1;;
51491;SDS011;37569;50.548;8.778;2023-06-19T10:57:17;5.2;;;4.5;;
51491;SDS011;37569;50.548;8.778;2023-06-19T11:02:18;4.8;;;4.4;;
51491;SDS011;37569;50.548;8.778;2023-06-19T11:07:19;4.4;;;4;;
51491;SDS011;37569;50.548;8.778;2023-06-19T11:12:20;5;;;4.3;;
51491;SDS011;37569;50.548;8.778;2023-06-19T11:17:22;6.4;;;4.4;;
51491;SDS011;37569;50.548;8.778;2023-06-19T11:22:33;4.7;;;4.2;;
51491;SDS011;37569;50.548;8.778;2023-06-19T11:27:24;4.4;;;4;;
51491;SDS011;37569;50.548;8.778;2023-06-19T11:32:30;4.2;;;3.9;;
51491;SDS011;37569;50.548;8.778;2023-06-19T11:37:29;4.2;;;3.7;;
51491;SDS011;37569;50.548;8.778;2023-06-19T11:42:28;4.5;;;4.1;;
51491;SDS011;37569;50.548;8.778;2023-06-19T11:47:30;4.4;;;4;;
51491;SDS011;37569;50.548;8.778;2023-06-19T11:52:31;4;;;3.7;;
51491;SDS011;37569;50.548;8.778;2023-06-19T11:57:33;4.5;;;4.1;;
51491;SDS011;37569;50.548;8.778;2023-06-19T12:02:34;4.7;;;4.2;;
51491;SDS011;37569;50.548;8.778;2023-06-19T12:07:35;6.7;;;4.1;;
51491;SDS011;37569;50.548;8.778;2023-06-19T12:12:37;4.2;;;3.8;;
51491;SDS011;37569;50.548;8.778;2023-06-19T12:17:38;3.8;;;3.5;;
51491;SDS011;37569;50.548;8.778;2023-06-19T12:22:39;4.6;;;4.2;;
51491;SDS011;37569;50.548;8.778;2023-06-19T12:27:41;4.4;;;4;;
51491;SDS011;37569;50.548;8.778;2023-06-19T12:32:42;4.6;;;4.2;;
51491;SDS011;37569;50.548;8.778;2023-06-19T12:37:43;4.8;;;4.3;;
51491;SDS011;37569;50.548;8.778;2023-06-19T12:42:45;4.4;;;4;;
51491;SDS011;37569;50.548;8.778;2023-06-19T12:47:46;5.1;;;4.6;;
51491;SDS011;37569;50.548;8.778;2023-06-19T12:52:47;5;;;4.5;;
51491;SDS011;37569;50.548;8.778;2023-06-19T12:57:49;5.1;;;4.6;;
51491;SDS011;37569;50.548;8.778;2023-06-19T13:02:50;5.6;;;4.7;;
51491;SDS011;37569;50.548;8.778;2023-06-19T13:07:51;4.9;;;4.5;;
51491;SDS011;37569;50.548;8.778;2023-06-19T13:12:53;5.8;;;4.6;;
51491;SDS011;37569;50.548;8.778;2023-06-19T13:17:54;4.9;;;4.5;;
51491;SDS011;37569;50.548;8.778;2023-06-19T13:22:56;5.2;;;4.7;;
51491;SDS011;37569;50.548;8.778;2023-06-19T13:27:57;5.7;;;4.8;;
51491;SDS011;37569;50.548;8.778;2023-06-19T13:32:58;5.8;;;4.4;;
51491;SDS011;37569;50.548;8.778;2023-06-19T13:38:00;4.6;;;4.2;;
51491;SDS011;37569;50.548;8.778;2023-06-19T13:43:01;4.8;;;4.4;;
51491;SDS011;37569;50.548;8.778;2023-06-19T13:48:03;5.3;;;4.8;;
51491;SDS011;37569;50.548;8.778;2023-06-19T13:53:04;4.3;;;4;;
51491;SDS011;37569;50.548;8.778;2023-06-19T13:58:05;4.9;;;4.3;;
51491;SDS011;37569;50.548;8.778;2023-06-19T14:03:07;4.6;;;4.3;;
51491;SDS011;37569;50.548;8.778;2023-06-19T14:08:08;4.8;;;4.4;;
51491;SDS011;37569;50.548;8.778;2023-06-19T14:13:09;4.7;;;4.3;;
51491;SDS011;37569;50.548;8.778;2023-06-19T14:18:11;4.5;;;4.1;;
51491;SDS011;37569;50.548;8.778;2023-06-19T14:23:12;4.8;;;4.3;;
51491;SDS011;37569;50.548;8.778;2023-06-19T14:28:14;4.7;;;4.3;;
51491;SDS011;37569;50.548;8.778;2023-06-19T14:33:15;4.7;;;4.3;;
51491;SDS011;37569;50.548;8.778;2023-06-19T14:38:17;4.6;;;4.2;;
51491;SDS011;37569;50.548;8.778;2023-06-19T14:43:18;5.5;;;4.2;;
51491;SDS011;37569;50.548;8.778;2023-06-19T14:48:19;5;;;4.5;;
51491;SDS011;37569;50.548;8.778;2023-06-19T14:53:21;5.9;;;4.3;;
51491;SDS011;37569;50.548;8.778;2023-06-19T14:58:22;4.7;;;4.3;;
51491;SDS011;37569;50.548;8.778;2023-06-19T15:03:24;4.9;;;4.4;;
51491;SDS011;37569;50.548;8.778;2023-06-19T15:08:25;4.6;;;4.2;;
51491;SDS011;37569;50.548;8.778;2023-06-19T15:13:27;4.6;;;4;;
51491;SDS011;37569;50.548;8.778;2023-06-19T15:18:28;4.7;;;4.2;;
51491;SDS011;37569;50.548;8.778;2023-06-19T15:23:29;4.1;;;3.7;;
51491;SDS011;37569;50.548;8.778;2023-06-19T15:28:32;4.4;;;4.1;;
51491;SDS011;37569;50.548;8.778;2023-06-19T15:33:32;4.4;;;4;;
51491;SDS011;37569;50.548;8.778;2023-06-19T15:38:34;4.6;;;4.1;;
51491;SDS011;37569;50.548;8.778;2023-06-19T15:43:35;4.6;;;4.2;;
51491;SDS011;37569;50.548;8.778;2023-06-19T15:48:37;4.7;;;4.3;;
51491;SDS011;37569;50.548;8.778;2023-06-19T15:53:38;4.1;;;3.7;;
51491;SDS011;37569;50.548;8.778;2023-06-19T15:58:39;4.7;;;4.2;;
51491;SDS011;37569;50.548;8.778;2023-06-19T16:03:41;4.2;;;3.8;;
51491;SDS011;37569;50.548;8.778;2023-06-19T16:08:43;4.1;;;3.8;;
51491;SDS011;37569;50.548;8.778;2023-06-19T16:13:44;4.2;;;3.8;;
51491;SDS011;37569;50.548;8.778;2023-06-19T16:18:45;3.8;;;3.5;;
51491;SDS011;37569;50.548;8.778;2023-06-19T16:23:46;3.8;;;3.5;;
51491;SDS011;37569;50.548;8.778;2023-06-19T16:28:48;4.2;;;3.8;;
51491;SDS011;37569;50.548;8.778;2023-06-19T16:33:49;5.1;;;3.6;;
51491;SDS011;37569;50.548;8.778;2023-06-19T16:38:51;3.8;;;3.4;;
51491;SDS011;37569;50.548;8.778;2023-06-19T16:43:52;4;;;3.6;;
51491;SDS011;37569;50.548;8.778;2023-06-19T16:48:53;4.1;;;3.6;;
51491;SDS011;37569;50.548;8.778;2023-06-19T16:53:55;3.9;;;3.5;;
51491;SDS011;37569;50.548;8.778;2023-06-19T16:58:56;4;;;3.6;;
51491;SDS011;37569;50.548;8.778;2023-06-19T17:03:57;4.8;;;4.2;;
51491;SDS011;37569;50.548;8.778;2023-06-19T17:08:59;5;;;4.2;;
51491;SDS011;37569;50.548;8.778;2023-06-19T17:14:00;4.8;;;4.3;;
51491;SDS011;37569;50.548;8.778;2023-06-19T17:19:02;4.7;;;4;;
51491;SDS011;37569;50.548;8.778;2023-06-19T17:24:03;4.6;;;4;;
51491;SDS011;37569;50.548;8.778;2023-06-19T17:29:04;4.5;;;4.1;;
51491;SDS011;37569;50.548;8.778;2023-06-19T17:34:05;4.3;;;3.9;;
51491;SDS011;37569;50.548;8.778;2023-06-19T17:39:07;4.3;;;3.9;;
51491;SDS011;37569;50.548;8.778;2023-06-19T17:44:08;4.8;;;4.3;;
51491;SDS011;37569;50.548;8.778;2023-06-19T17:49:10;5;;;4.2;;
51491;SDS011;37569;50.548;8.778;2023-06-19T17:54:11;5.7;;;5.2;;
51491;SDS011;37569;50.548;8.778;2023-06-19T17:59:12;5.8;;;5.2;;
51491;SDS011;37569;50.548;8.778;2023-06-19T18:04:14;7.6;;;6.8;;
51491;SDS011;37569;50.548;8.778;2023-06-19T18:09:15;5.4;;;4.9;;
51491;SDS011;37569;50.548;8.778;2023-06-19T18:14:16;4.3;;;3.9;;
51491;SDS011;37569;50.548;8.778;2023-06-19T18:19:18;4.8;;;4.3;;
51491;SDS011;37569;50.548;8.778;2023-06-19T18:24:19;7.6;;;4.2;;
51491;SDS011;37569;50.548;8.778;2023-06-19T18:29:20;5;;;3.7;;
51491;SDS011;37569;50.548;8.778;2023-06-19T18:34:21;4.5;;;3.8;;
51491;SDS011;37569;50.548;8.778;2023-06-19T18:39:23;4.9;;;3.8;;
51491;SDS011;37569;50.548;8.778;2023-06-19T18:44:24;4.6;;;4.1;;
51491;SDS011;37569;50.548;8.778;2023-06-19T18:49:25;6.1;;;4;;
51491;SDS011;37569;50.548;8.778;2023-06-19T18:54:26;4.4;;;4;;
51491;SDS011;37569;50.548;8.778;2023-06-19T18:59:28;4.3;;;3.9;;
51491;SDS011;37569;50.548;8.778;2023-06-19T19:04:29;4.2;;;3.8;;
51491;SDS011;37569;50.548;8.778;2023-06-19T19:09:30;4.8;;;4.1;;
51491;SDS011;37569;50.548;8.778;2023-06-19T19:14:31;4.7;;;3.8;;
51491;SDS011;37569;50.548;8.778;2023-06-19T19:19:33;6.2;;;4;;
51491;SDS011;37569;50.548;8.778;2023-06-19T19:24:34;4.4;;;4;;
51491;SDS011;37569;50.548;8.778;2023-06-19T19:29:35;4.8;;;3.8;;
51491;SDS011;37569;50.548;8.778;2023-06-19T19:34:36;4.4;;;3.9;;
51491;SDS011;37569;50.548;8.778;2023-06-19T19:39:38;4.7;;;3.8;;
51491;SDS011;37569;50.548;8.778;2023-06-19T19:44:39;4.3;;;3.9;;
51491;SDS011;37569;50.548;8.778;2023-06-19T19:49:40;4.3;;;3.9;;
51491;SDS011;37569;50.548;8.778;2023-06-19T19:54:41;4.8;;;4.2;;
51491;SDS011;37569;50.548;8.778;2023-06-19T19:59:42;4.5;;;4;;
51491;SDS011;37569;50.548;8.778;2023-06-19T20:04:44;5.4;;;4.1;;
51491;SDS011;37569;50.548;8.778;2023-06-19T20:09:45;4.5;;;4.1;;
51491;SDS011;37569;50.548;8.778;2023-06-19T20:14:46;4.3;;;3.9;;
51491;SDS011;37569;50.548;8.778;2023-06-19T20:19:47;5;;;4.4;;
51491;SDS011;37569;50.548;8.778;2023-06-19T20:24:49;5.9;;;4;;
51491;SDS011;37569;50.548;8.778;2023-06-19T20:29:50;4.8;;;4.1;;
51491;SDS011;37569;50.548;8.778;2023-06-19T20:34:51;4.3;;;3.8;;
51491;SDS011;37569;50.548;8.778;2023-06-19T20:39:53;5.2;;;4.4;;
51491;SDS011;37569;50.548;8.778;2023-06-19T20:44:53;5.9;;;4.2;;
51491;SDS011;37569;50.548;8.778;2023-06-19T20:49:55;4.7;;;4.3;;
51491;SDS011;37569;50.548;8.778;2023-06-19T20:54:56;4.6;;;4.2;;
51491;SDS011;37569;50.548;8.778;2023-06-19T20:59:57;4.9;;;4.3;;
51491;SDS011;37569;50.548;8.778;2023-06-19T21:04:58;5.3;;;4.3;;
51491;SDS011;37569;50.548;8.778;2023-06-19T21:09:59;5.9;;;4.6;;
51491;SDS011;37569;50.548;8.778;2023-06-19T21:15:00;4.9;;;4.5;;
51491;SDS011;37569;50.548;8.778;2023-06-19T21:20:02;5.3;;;4.5;;
51491;SDS011;37569;50.548;8.778;2023-06-19T21:25:03;5.5;;;4.6;;
51491;SDS011;37569;50.548;8.778;2023-06-19T21:30:04;4.9;;;4.5;;
51491;SDS011;37569;50.548;8.778;2023-06-19T21:35:05;7;;;4.6;;
51491;SDS011;37569;50.548;8.778;2023-06-19T21:40:06;5.2;;;4.7;;
51491;SDS011;37569;50.548;8.778;2023-06-19T21:45:07;5.2;;;4.7;;
51491;SDS011;37569;50.548;8.778;2023-06-19T21:50:09;4.9;;;4.5;;
51491;SDS011;37569;50.548;8.778;2023-06-19T21:55:10;5.3;;;4.8;;
51491;SDS011;37569;50.548;8.778;2023-06-19T22:00:11;5.1;;;4.7;;
51491;SDS011;37569;50.548;8.778;2023-06-19T22:05:12;5.3;;;4.8;;
51491;SDS011;37569;50.548;8.778;2023-06-19T22:10:13;5.1;;;4.4;;
51491;SDS011;37569;50.548;8.778;2023-06-19T22:15:14;5.9;;;4.5;;
51491;SDS011;37569;50.548;8.778;2023-06-19T22:20:15;5.2;;;4.7;;
51491;SDS011;37569;50.548;8.778;2023-06-19T22:25:16;5.8;;;5;;
51491;SDS011;37569;50.548;8.778;2023-06-19T22:30:17;5.8;;;5.2;;
51491;SDS011;37569;50.548;8.778;2023-06-19T22:35:19;5.2;;;4.7;;
51491;SDS011;37569;50.548;8.778;2023-06-19T22:40:19;5.4;;;4.9;;
51491;SDS011;37569;50.548;8.778;2023-06-19T22:45:21;5.8;;;5.1;;
51491;SDS011;37569;50.548;8.778;2023-06-19T22:50:22;5.5;;;5;;
51491;SDS011;37569;50.548;8.778;2023-06-19T22:55:23;5.3;;;4.8;;
51491;SDS011;37569;50.548;8.778;2023-06-19T23:00:24;5.9;;;5.2;;
51491;SDS011;37569;50.548;8.778;2023-06-19T23:05:25;5.4;;;4.9;;
51491;SDS011;37569;50.548;8.778;2023-06-19T23:10:26;5.6;;;5.1;;
51491;SDS011;37569;50.548;8.778;2023-06-19T23:15:27;5.9;;;5.3;;
51491;SDS011;37569;50.548;8.778;2023-06-19T23:20:28;6.3;;;5.3;;
51491;SDS011;37569;50.548;8.778;2023-06-19T23:25:29;5.6;;;5.1;;
51491;SDS011;37569;50.548;8.778;2023-06-19T23:30:30;6.2;;;5.6;;
51491;SDS011;37569;50.548;8.778;2023-06-19T23:35:31;6;;;5.4;;
51491;SDS011;37569;50.548;8.778;2023-06-19T23:40:32;5.9;;;5.3;;
51491;SDS011;37569;50.548;8.778;2023-06-19T23:45:33;7.1;;;5.3;;
51491;SDS011;37569;50.548;8.778;2023-06-19T23:50:34;7;;;5.4;;
51491;SDS011;37569;50.548;8.778;2023-06-19T23:55:35;5.4;;;4.9;;
